Ramsbury, United Kingdom
Current Conditions -  °F | °C
As of 4:08 PM on Thursday 23 Oct 2014 (Local Time) from EGVA Reporting Station
Overcast Overcast  
Wind Chill: 59°   Ceiling: 2300
Heat Index: 59°   Visibility: 6mi
Dew Point: 55°   Wind: 13mph
Humidity: 88%   Direction: 210°SSW
Pressure: 30.01"   Gusts: NA
Location:  51.44°N, 1.6°W
Report Text: EGVA 231508Z AUTO 21011KT 9999 BKN023 OVC035 15/13 A3001 RMK AO2 CIG 023V035 BKN V SCT
Loading
Personal Weather Stations






























Interactive Weather Map
Tropical Storm Tracking
New forecast layout! Learn more

10-Day Weather Forecast

Advertisements
Track Severe Weather on mobile